Time;durP1;ratioP1;P1;durP2;ratioP2;P2;SDS_P1;SDS_P2;PMS_P1;PMS_P2;Temp;Humidity;BMP_temperature;BMP_pressure;BME280_temperature;BME280_humidity;BME280_pressure;Samples;Min_cycle;Max_cycle;Signal;HPM_P1;HPM_P2
2022/05/07 00:00:28;;;;;;;7.20;4.90;;;13.70;99.90;;;;;;5117965;28;20210;-69
2022/05/07 00:02:54;;;;;;;9.40;4.30;;;13.50;99.90;;;;;;5120179;28;20245;-70
2022/05/07 00:05:21;;;;;;;7.57;5.00;;;13.40;99.90;;;;;;5142027;27;20205;-70
2022/05/07 00:07:47;;;;;;;8.83;5.30;;;13.50;99.90;;;;;;5124959;28;20158;-69
2022/05/07 00:10:14;;;;;;;5.73;4.70;;;13.50;99.90;;;;;;5119564;28;20502;-69
2022/05/07 00:12:40;;;;;;;6.77;4.60;;;13.40;99.90;;;;;;5117876;28;20257;-68
2022/05/07 00:15:06;;;;;;;6.53;4.87;;;13.20;99.90;;;;;;5099372;28;20202;-68
2022/05/07 00:20:17;;;;;;;7.17;4.80;;;13.20;99.90;;;;;;5116134;28;20254;-68
2022/05/07 00:22:43;;;;;;;6.97;5.47;;;13.20;99.90;;;;;;5098451;28;20442;-68
2022/05/07 00:25:09;;;;;;;8.60;5.20;;;13.10;99.90;;;;;;5116459;28;20253;-69
2022/05/07 00:27:35;;;;;;;5.07;4.57;;;13.20;99.90;;;;;;5116504;28;20170;-69
2022/05/07 00:30:00;;;;;;;9.17;4.77;;;13.10;99.90;;;;;;5116499;28;20328;-69
2022/05/07 00:32:26;;;;;;;6.07;5.30;;;13.10;99.90;;;;;;5116219;28;20199;-68
2022/05/07 00:34:52;;;;;;;8.20;5.10;;;13.10;99.90;;;;;;5116357;28;20162;-69
2022/05/07 00:37:18;;;;;;;7.13;5.23;;;13.10;99.90;;;;;;5097979;28;20167;-69
2022/05/07 00:39:43;;;;;;;6.70;5.43;;;13.10;99.90;;;;;;5115890;28;20641;-69
2022/05/07 00:42:09;;;;;;;6.17;4.90;;;13.10;99.90;;;;;;5116528;28;20176;-68
2022/05/07 00:44:35;;;;;;;7.07;4.80;;;13.00;99.90;;;;;;5115798;28;20162;-67
2022/05/07 00:47:25;;;;;;;5.87;4.50;;;13.00;99.90;;;;;;5097924;28;20205;-68
2022/05/07 00:49:54;;;;;;;4.43;4.00;;;13.00;99.90;;;;;;5115969;28;20170;-68
2022/05/07 00:52:19;;;;;;;10.00;4.60;;;13.00;99.90;;;;;;5097601;28;20394;-67
2022/05/07 00:54:46;;;;;;;5.27;4.53;;;12.90;99.90;;;;;;5115852;28;20186;-68
2022/05/07 00:57:13;;;;;;;10.37;4.83;;;12.80;99.90;;;;;;5097273;28;20162;-68
2022/05/07 00:59:39;;;;;;;9.67;4.43;;;12.90;99.90;;;;;;5115690;28;20236;-68
2022/05/07 01:02:04;;;;;;;4.80;4.27;;;12.90;99.90;;;;;;5115726;28;20174;-68
2022/05/07 01:04:30;;;;;;;6.23;5.00;;;12.70;99.90;;;;;;5115387;28;20641;-69
2022/05/07 01:06:57;;;;;;;11.47;4.60;;;12.50;99.90;;;;;;5115607;28;20185;-68
2022/05/07 01:09:22;;;;;;;4.37;3.97;;;12.40;99.90;;;;;;5115370;28;20253;-69
2022/05/07 01:11:50;;;;;;;5.03;3.97;;;12.30;99.90;;;;;;5115569;28;20197;-67
2022/05/07 01:14:15;;;;;;;5.60;4.13;;;12.30;99.90;;;;;;5097191;28;20170;-67
2022/05/07 01:16:41;;;;;;;7.13;4.27;;;12.20;99.90;;;;;;5115281;28;20176;-69
2022/05/07 01:19:07;;;;;;;7.53;4.83;;;12.10;99.90;;;;;;5115133;28;20509;-68
2022/05/07 01:21:33;;;;;;;6.37;4.40;;;12.20;99.90;;;;;;5115678;28;20169;-68
2022/05/07 01:23:59;;;;;;;6.37;4.10;;;12.10;99.90;;;;;;5115209;28;20197;-69
2022/05/07 01:26:25;;;;;;;6.50;4.10;;;12.10;99.90;;;;;;5115369;28;20586;-70
2022/05/07 01:28:57;;;;;;;6.43;4.50;;;12.30;99.90;;;;;;5117914;28;20173;-68
2022/05/07 01:31:28;;;;;;;6.23;3.90;;;12.20;99.90;;;;;;5125325;28;20269;-68
2022/05/07 01:33:54;;;;;;;4.63;3.97;;;12.10;99.90;;;;;;5116186;28;20177;-68
2022/05/07 01:36:20;;;;;;;5.83;4.20;;;12.00;99.90;;;;;;5115076;28;20163;-68
2022/05/07 01:38:46;;;;;;;6.27;4.07;;;11.80;99.90;;;;;;5096664;28;20652;-69
2022/05/07 01:41:11;;;;;;;6.60;4.00;;;11.80;99.90;;;;;;5097056;28;20178;-71
2022/05/07 01:43:38;;;;;;;7.77;4.50;;;11.70;99.90;;;;;;5114777;28;20166;-68
2022/05/07 01:48:09;;;;;;;3.67;3.33;;;11.70;99.90;;;;;;5097298;28;20233;-68
2022/05/07 01:48:49;;;;;;;9.47;3.90;;;11.70;99.90;;;;;;5114824;28;20285;-67
2022/05/07 01:51:15;;;;;;;5.50;3.60;;;11.70;99.90;;;;;;5096654;28;20219;-70
2022/05/07 01:53:40;;;;;;;7.47;3.70;;;11.50;99.90;;;;;;5114460;28;20521;-68
2022/05/07 01:56:06;;;;;;;6.13;3.90;;;11.50;99.90;;;;;;5115002;28;20160;-68
2022/05/07 01:58:31;;;;;;;5.60;4.20;;;11.60;99.90;;;;;;5114672;28;20513;-67
2022/05/07 02:00:57;;;;;;;5.73;4.33;;;11.60;99.90;;;;;;5114205;28;20162;-69
2022/05/07 02:03:23;;;;;;;5.40;3.77;;;11.60;99.90;;;;;;5114573;28;20229;-70
2022/05/07 02:05:49;;;;;;;6.77;4.07;;;11.60;99.90;;;;;;5114252;28;20190;-69
2022/05/07 02:08:14;;;;;;;10.13;4.87;;;11.60;99.90;;;;;;5096554;28;20178;-69
2022/05/07 02:10:40;;;;;;;5.30;4.40;;;11.50;99.90;;;;;;5114462;28;20173;-69
2022/05/07 02:13:06;;;;;;;8.20;5.20;;;11.50;99.90;;;;;;5114289;28;20162;-70
2022/05/07 02:15:32;;;;;;;6.37;4.40;;;11.40;99.90;;;;;;5113925;28;20610;-67
2022/05/07 02:17:57;;;;;;;6.53;4.43;;;11.40;99.90;;;;;;5114844;28;20198;-71
2022/05/07 02:20:24;;;;;;;5.97;4.40;;;11.50;99.90;;;;;;5115062;28;20537;-68
2022/05/07 02:22:55;;;;;;;6.87;4.20;;;11.40;99.90;;;;;;5114504;28;20602;-67
2022/05/07 02:25:24;;;;;;;3.77;3.43;;;11.30;99.90;;;;;;5114082;28;20283;-68
2022/05/07 02:27:50;;;;;;;5.53;4.10;;;11.50;99.90;;;;;;5095501;28;20178;-68
2022/05/07 02:30:19;;;;;;;4.83;4.37;;;11.40;99.90;;;;;;5114322;28;20161;-67
2022/05/07 02:32:48;;;;;;;5.73;4.30;;;11.30;99.90;;;;;;5114354;28;20203;-67
2022/05/07 02:35:13;;;;;;;4.60;3.97;;;11.30;99.90;;;;;;5129953;27;20192;-68
2022/05/07 02:37:39;;;;;;;7.33;4.10;;;11.30;99.90;;;;;;5134564;27;20248;-68
2022/05/07 02:40:05;;;;;;;6.33;4.03;;;11.30;99.90;;;;;;5134645;27;20554;-67
2022/05/07 02:42:36;;;;;;;5.00;4.03;;;11.20;99.90;;;;;;5134711;27;20184;-67
2022/05/07 02:45:09;;;;;;;5.73;4.17;;;11.10;99.90;;;;;;5135219;27;20278;-67
2022/05/07 02:47:36;;;;;;;5.87;4.20;;;11.00;99.90;;;;;;5135103;27;20172;-68
2022/05/07 02:50:03;;;;;;;4.30;3.90;;;11.10;99.90;;;;;;5135691;28;20257;-67
2022/05/07 02:52:32;;;;;;;5.83;4.20;;;11.00;99.90;;;;;;5136384;28;20154;-66
2022/05/07 02:55:05;;;;;;;7.33;4.37;;;10.90;99.90;;;;;;5138025;28;20169;-69
2022/05/07 02:57:31;;;;;;;4.87;4.07;;;10.90;99.90;;;;;;5136336;28;20274;-68
2022/05/07 02:59:56;;;;;;;5.53;4.17;;;10.60;99.90;;;;;;5136819;28;20170;-68
2022/05/07 03:02:23;;;;;;;5.80;4.43;;;10.30;99.90;;;;;;5137729;28;20216;-68
2022/05/07 03:04:50;;;;;;;5.77;4.23;;;10.50;99.90;;;;;;5138308;28;20161;-67
2022/05/07 03:07:16;;;;;;;5.83;4.30;;;10.50;99.90;;;;;;5117749;28;20612;-69
2022/05/07 03:09:41;;;;;;;5.40;4.03;;;10.60;99.90;;;;;;5135491;28;20247;-70
2022/05/07 03:12:09;;;;;;;7.00;4.97;;;10.50;99.90;;;;;;5136009;28;20165;-67
2022/05/07 03:14:35;;;;;;;4.40;4.00;;;10.30;99.90;;;;;;5118580;28;20165;-65
2022/05/07 03:17:01;;;;;;;5.80;3.93;;;10.30;99.90;;;;;;5136859;28;20150;-68
2022/05/07 03:19:27;;;;;;;5.30;4.30;;;10.10;99.90;;;;;;5118407;28;20484;-66
2022/05/07 03:21:53;;;;;;;9.37;4.47;;;10.10;99.90;;;;;;5137433;28;20183;-67
2022/05/07 03:24:18;;;;;;;4.63;3.53;;;10.10;99.90;;;;;;5138468;28;20154;-65
2022/05/07 03:26:44;;;;;;;4.20;3.80;;;10.10;99.90;;;;;;5139752;28;20224;-67
2022/05/07 03:29:10;;;;;;;7.50;3.93;;;9.90;99.90;;;;;;5136162;28;20654;-69
2022/05/07 03:31:37;;;;;;;6.43;4.73;;;10.10;99.90;;;;;;5138149;28;20171;-67
2022/05/07 03:34:03;;;;;;;8.00;4.63;;;9.90;99.90;;;;;;5138522;28;20248;-67
2022/05/07 03:36:28;;;;;;;5.70;4.57;;;10.00;99.90;;;;;;5139661;28;20588;-67
2022/05/07 03:38:54;;;;;;;6.60;4.43;;;10.00;99.90;;;;;;5137918;28;20225;-68
2022/05/07 03:41:20;;;;;;;5.63;4.40;;;10.10;99.90;;;;;;5138383;28;20161;-68
2022/05/07 03:43:45;;;;;;;5.23;4.07;;;10.10;99.90;;;;;;5135693;28;20262;-66
2022/05/07 03:46:11;;;;;;;7.90;4.53;;;10.10;99.90;;;;;;5135064;28;20194;-67
2022/05/07 03:48:37;;;;;;;7.53;4.87;;;10.20;99.90;;;;;;5138991;27;20169;-67
2022/05/07 03:51:03;;;;;;;4.57;4.17;;;10.10;99.90;;;;;;5142164;27;20188;-67
2022/05/07 03:53:32;;;;;;;4.77;4.00;;;9.90;99.90;;;;;;5125653;27;20522;-68
2022/05/07 03:55:58;;;;;;;6.60;4.30;;;9.90;99.90;;;;;;5143079;27;20167;-68
2022/05/07 03:58:25;;;;;;;5.00;4.43;;;9.80;99.90;;;;;;5142179;27;20250;-68
2022/05/07 04:00:51;;;;;;;7.83;4.77;;;9.90;99.90;;;;;;5141943;27;20204;-67
2022/05/07 04:03:17;;;;;;;5.90;4.43;;;9.90;99.90;;;;;;5137343;27;20217;-67
2022/05/07 04:05:42;;;;;;;5.97;4.23;;;10.00;99.90;;;;;;5137161;27;20189;-67
2022/05/07 04:08:08;;;;;;;4.70;4.20;;;9.90;99.90;;;;;;5137321;27;20177;-66
2022/05/07 04:10:34;;;;;;;5.10;4.10;;;9.90;99.90;;;;;;5136892;27;20163;-67
2022/05/07 04:12:59;;;;;;;5.97;4.60;;;9.80;99.90;;;;;;5137086;27;20168;-68
2022/05/07 04:15:25;;;;;;;4.50;4.00;;;9.80;99.90;;;;;;5118701;27;20177;-67
2022/05/07 04:17:51;;;;;;;7.80;4.83;;;9.80;99.90;;;;;;5137436;27;20248;-68
2022/05/07 04:20:17;;;;;;;4.63;4.23;;;9.70;99.90;;;;;;5137284;27;20490;-68
2022/05/07 04:22:43;;;;;;;5.73;4.57;;;9.80;99.90;;;;;;5118662;27;20531;-68
2022/05/07 04:25:10;;;;;;;8.60;4.67;;;9.80;99.90;;;;;;5137038;27;20180;-67
2022/05/07 04:27:36;;;;;;;6.93;4.90;;;9.70;99.90;;;;;;5136865;27;20164;-66
2022/05/07 04:30:03;;;;;;;4.90;4.37;;;9.90;99.90;;;;;;5137144;27;20158;-65
2022/05/07 04:32:29;;;;;;;10.47;5.47;;;9.90;99.90;;;;;;5136963;27;20157;-68
2022/05/07 04:34:55;;;;;;;6.77;4.50;;;9.90;99.90;;;;;;5136659;27;20243;-67
2022/05/07 04:37:25;;;;;;;6.00;4.80;;;9.90;99.90;;;;;;5137080;27;20221;-67
2022/05/07 04:39:51;;;;;;;8.23;4.50;;;10.00;99.90;;;;;;5137070;27;20211;-66
2022/05/07 04:42:17;;;;;;;5.40;4.90;;;10.00;99.90;;;;;;5118596;27;20177;-67
2022/05/07 04:44:43;;;;;;;6.23;4.83;;;10.10;99.90;;;;;;5136747;27;20478;-67
2022/05/07 04:47:09;;;;;;;7.13;4.43;;;10.00;99.90;;;;;;5136746;27;20193;-68
2022/05/07 04:49:36;;;;;;;6.23;4.60;;;10.10;99.90;;;;;;5095384;28;20212;-66
2022/05/07 04:52:02;;;;;;;7.83;5.10;;;10.20;99.90;;;;;;5116198;28;20157;-67
2022/05/07 04:54:28;;;;;;;7.43;5.07;;;10.10;99.90;;;;;;5132572;27;20166;-68
2022/05/07 04:56:54;;;;;;;6.23;4.53;;;10.10;99.90;;;;;;5116205;28;20214;-67
2022/05/07 04:59:20;;;;;;;6.10;5.10;;;10.20;99.90;;;;;;5097183;28;20173;-66
2022/05/07 05:01:47;;;;;;;6.20;5.10;;;10.40;99.90;;;;;;5097870;28;20185;-67
2022/05/07 05:04:13;;;;;;;6.40;4.80;;;10.60;99.90;;;;;;5098009;28;20545;-70
2022/05/07 05:06:39;;;;;;;7.03;4.70;;;10.80;99.90;;;;;;5115892;28;20276;-66
2022/05/07 05:09:06;;;;;;;6.30;4.97;;;11.10;99.90;;;;;;5115405;28;20169;-66
2022/05/07 05:11:33;;;;;;;5.33;4.80;;;10.90;99.90;;;;;;5115687;28;20637;-67
2022/05/07 05:13:58;;;;;;;5.30;4.80;;;11.00;99.90;;;;;;5115796;28;20166;-67
2022/05/07 05:16:24;;;;;;;6.13;4.50;;;10.90;99.90;;;;;;5115772;28;20161;-67
2022/05/07 05:18:50;;;;;;;4.87;4.27;;;10.90;99.90;;;;;;5115657;28;20167;-68
2022/05/07 05:21:15;;;;;;;8.27;4.77;;;10.90;99.90;;;;;;5116057;28;20254;-66
2022/05/07 05:23:41;;;;;;;5.13;4.53;;;10.90;99.90;;;;;;5115478;28;20158;-66
2022/05/07 05:26:07;;;;;;;8.10;5.00;;;11.00;99.90;;;;;;5115323;28;20336;-67
2022/05/07 05:28:33;;;;;;;4.83;4.33;;;11.10;99.90;;;;;;5116025;28;20173;-68
2022/05/07 05:30:59;;;;;;;4.83;4.30;;;11.10;99.90;;;;;;5116027;28;20163;-67
2022/05/07 05:33:25;;;;;;;6.83;4.80;;;11.20;99.90;;;;;;5115211;28;20150;-66
2022/05/07 05:35:51;;;;;;;6.87;4.97;;;11.10;99.90;;;;;;5116135;28;20707;-66
2022/05/07 05:38:16;;;;;;;6.10;4.30;;;11.20;99.90;;;;;;5115252;28;20586;-67
2022/05/07 05:40:42;;;;;;;4.93;4.30;;;11.30;99.90;;;;;;5118240;28;20260;-68
2022/05/07 05:43:09;;;;;;;5.87;4.23;;;11.40;99.90;;;;;;5117426;28;20239;-66
2022/05/07 05:45:35;;;;;;;6.40;4.40;;;11.30;99.90;;;;;;5115966;28;20193;-66
2022/05/07 05:48:01;;;;;;;5.73;4.07;;;11.50;99.90;;;;;;5116119;28;20189;-66
2022/05/07 05:50:30;;;;;;;4.63;3.97;;;11.60;99.90;;;;;;5115575;28;20146;-67
2022/05/07 05:52:59;;;;;;;6.27;4.30;;;11.70;99.90;;;;;;5115530;28;20151;-66
2022/05/07 05:55:24;;;;;;;11.43;3.83;;;11.80;99.90;;;;;;5118622;28;20166;-67
2022/05/07 05:57:50;;;;;;;7.43;4.17;;;11.80;99.90;;;;;;5103775;28;20211;-66
2022/05/07 06:00:17;;;;;;;4.70;4.20;;;11.90;99.90;;;;;;5121054;28;20246;-67
2022/05/07 06:02:44;;;;;;;6.23;4.73;;;12.00;99.90;;;;;;5116190;28;20305;-67
2022/05/07 06:05:10;;;;;;;7.00;4.37;;;12.20;99.90;;;;;;5097490;28;20190;-66
2022/05/07 06:07:35;;;;;;;5.23;4.27;;;12.20;99.90;;;;;;5114900;28;20579;-67
2022/05/07 06:10:01;;;;;;;5.00;3.83;;;12.30;99.90;;;;;;5096726;28;20177;-67
2022/05/07 06:12:27;;;;;;;6.50;4.07;;;12.30;99.90;;;;;;5115104;28;20604;-67
2022/05/07 06:14:54;;;;;;;5.50;3.60;;;12.50;99.90;;;;;;5115654;28;20162;-67
2022/05/07 06:17:20;;;;;;;5.30;4.10;;;12.60;99.90;;;;;;5116980;28;20264;-65
2022/05/07 06:19:45;;;;;;;6.07;4.17;;;12.80;99.90;;;;;;5119188;28;20240;-66
2022/05/07 06:22:11;;;;;;;3.87;3.40;;;12.80;99.90;;;;;;5119325;28;20203;-68
2022/05/07 06:27:33;;;;;;;5.30;4.23;;;13.30;99.90;;;;;;5115568;28;20672;-69
2022/05/07 06:29:59;;;;;;;6.20;3.93;;;13.40;99.90;;;;;;5115815;28;20193;-66
2022/05/07 06:32:36;;;;;;;6.83;4.03;;;13.50;99.90;;;;;;5097448;28;20691;-67
2022/05/07 06:35:05;;;;;;;4.43;3.80;;;13.50;99.90;;;;;;5116306;28;20186;-67
2022/05/07 06:37:36;;;;;;;6.73;3.57;;;13.70;99.90;;;;;;5118707;28;20164;-68
2022/05/07 06:40:06;;;;;;;4.20;3.80;;;13.70;99.90;;;;;;5123236;28;20158;-66
2022/05/07 06:42:34;;;;;;;5.20;3.93;;;13.70;99.90;;;;;;5126478;28;20582;-67
2022/05/07 06:44:59;;;;;;;4.77;3.43;;;14.10;99.90;;;;;;5125117;28;20155;-69
2022/05/07 06:47:26;;;;;;;4.23;3.63;;;14.40;99.90;;;;;;5101808;28;20254;-66
2022/05/07 06:49:51;;;;;;;5.87;3.93;;;14.50;99.90;;;;;;5120745;27;20711;-68
2022/05/07 06:52:18;;;;;;;4.40;3.50;;;14.50;99.90;;;;;;5139665;28;20241;-66
2022/05/07 06:54:44;;;;;;;4.67;3.80;;;14.70;99.90;;;;;;5140419;28;20210;-67
2022/05/07 06:57:10;;;;;;;4.97;3.13;;;14.80;99.90;;;;;;5139484;28;20165;-68
2022/05/07 06:59:36;;;;;;;4.10;3.70;;;15.00;99.90;;;;;;5140018;28;20257;-68
2022/05/07 07:02:02;;;;;;;4.97;3.43;;;15.00;99.90;;;;;;5140981;28;20215;-66
2022/05/07 07:04:28;;;;;;;4.23;3.23;;;15.30;99.90;;;;;;5118513;28;20214;-66
2022/05/07 07:06:54;;;;;;;7.37;3.33;;;15.30;99.90;;;;;;5115520;28;20269;-69
2022/05/07 07:09:20;;;;;;;4.27;3.67;;;15.50;99.90;;;;;;5114386;28;20166;-68
2022/05/07 07:11:46;;;;;;;4.13;3.20;;;15.40;99.90;;;;;;5114611;28;20171;-67
2022/05/07 07:14:12;;;;;;;4.23;3.60;;;15.60;99.90;;;;;;5114273;28;20551;-69
2022/05/07 07:16:37;;;;;;;3.90;3.10;;;15.80;99.90;;;;;;5095447;28;20582;-67
2022/05/07 07:19:04;;;;;;;7.17;3.40;;;15.90;99.90;;;;;;5113595;28;20169;-65
2022/05/07 07:21:30;;;;;;;3.67;3.20;;;15.90;99.90;;;;;;5113669;28;20161;-66
2022/05/07 07:23:55;;;;;;;4.10;3.30;;;16.00;99.90;;;;;;5116964;28;20150;-67
2022/05/07 07:26:21;;;;;;;4.10;3.30;;;16.00;99.90;;;;;;5099916;28;20190;-67
2022/05/07 07:28:47;;;;;;;5.93;2.97;;;16.10;99.90;;;;;;5117737;28;20198;-67
2022/05/07 07:31:13;;;;;;;5.00;3.10;;;16.70;99.90;;;;;;5117531;28;20173;-66
2022/05/07 07:33:39;;;;;;;4.57;3.17;;;16.70;99.90;;;;;;5117513;28;20166;-66
2022/05/07 07:36:06;;;;;;;5.20;3.08;;;16.80;99.90;;;;;;5099251;28;20616;-66
2022/05/07 07:38:32;;;;;;;4.73;3.20;;;16.80;99.90;;;;;;5117438;28;20594;-66
2022/05/07 07:40:57;;;;;;;3.27;2.70;;;17.10;99.90;;;;;;5118569;28;20241;-67
2022/05/07 07:43:23;;;;;;;3.93;3.10;;;17.30;99.90;;;;;;5118698;28;20162;-67
2022/05/07 07:48:33;;;;;;;3.40;2.95;;;17.30;99.90;;;;;;5116951;28;20169;-66
2022/05/07 07:50:59;;;;;;;3.55;2.75;;;17.30;99.90;;;;;;5117415;28;20166;-65
2022/05/07 07:53:24;;;;;;;4.20;3.05;;;17.70;99.90;;;;;;5117457;28;20159;-68
2022/05/07 07:55:51;;;;;;;3.35;3.05;;;17.50;99.90;;;;;;5116751;28;20597;-67
2022/05/07 07:58:17;;;;;;;5.43;3.08;;;17.70;99.90;;;;;;5117324;28;20290;-67
2022/05/07 08:00:44;;;;;;;3.50;2.80;;;17.80;99.90;;;;;;5117267;28;20192;-68
2022/05/07 08:03:15;;;;;;;3.72;2.97;;;17.90;99.60;;;;;;5116880;28;20294;-68
2022/05/07 08:05:42;;;;;;;3.90;2.67;;;17.80;99.60;;;;;;5116810;28;20625;-67
2022/05/07 08:13:40;;;;;;;3.92;2.40;;;18.20;98.90;;;;;;5116378;28;20212;-68
2022/05/07 08:16:09;;;;;;;3.20;2.90;;;18.70;97.00;;;;;;5116263;28;20189;-66
2022/05/07 08:18:35;;;;;;;2.38;2.17;;;18.80;95.30;;;;;;5098736;28;20588;-66
2022/05/07 08:21:02;;;;;;;2.83;2.13;;;18.90;93.30;;;;;;5116776;28;20154;-68
2022/05/07 08:23:28;;;;;;;5.63;2.30;;;19.20;92.30;;;;;;5116473;28;20193;-68
2022/05/07 08:25:54;;;;;;;2.20;1.75;;;19.20;91.80;;;;;;5116345;28;20614;-66
2022/05/07 08:28:20;;;;;;;4.10;2.25;;;19.00;88.50;;;;;;5116896;28;20215;-67
2022/05/07 08:30:47;;;;;;;2.63;1.90;;;19.40;89.00;;;;;;5116091;28;20170;-65
2022/05/07 08:33:13;;;;;;;3.53;2.17;;;19.60;88.70;;;;;;5116591;28;20610;-69
2022/05/07 08:35:38;;;;;;;1.80;1.65;;;19.70;84.70;;;;;;5116730;28;20202;-68
2022/05/07 08:38:04;;;;;;;2.10;1.90;;;19.80;80.40;;;;;;5116189;28;20158;-69
2022/05/07 08:40:30;;;;;;;1.80;1.70;;;19.80;78.40;;;;;;5116130;28;20194;-69
2022/05/07 08:42:56;;;;;;;2.47;1.77;;;19.80;73.40;;;;;;5116308;28;20302;-67
2022/05/07 08:45:22;;;;;;;3.72;1.90;;;19.80;72.60;;;;;;5116682;28;20201;-68
2022/05/07 08:47:54;;;;;;;3.33;1.98;;;20.20;74.20;;;;;;5117116;28;20173;-67
2022/05/07 08:50:21;;;;;;;3.50;1.80;;;20.30;70.70;;;;;;5116708;28;20161;-67
2022/05/07 08:52:47;;;;;;;2.20;1.75;;;20.40;71.30;;;;;;5117714;28;20166;-67
2022/05/07 08:55:15;;;;;;;2.15;1.90;;;20.60;70.60;;;;;;5120591;28;20242;-68
2022/05/07 08:57:42;;;;;;;2.85;1.85;;;20.60;69.50;;;;;;5128422;28;20170;-66
2022/05/07 09:00:09;;;;;;;2.17;1.83;;;20.70;67.10;;;;;;5122870;28;20249;-65
2022/05/07 09:02:41;;;;;;;2.97;2.10;;;20.60;67.70;;;;;;5105566;27;20233;-66
2022/05/07 09:05:12;;;;;;;2.95;1.80;;;20.70;66.00;;;;;;5136968;27;20169;-67
2022/05/07 09:07:41;;;;;;;3.25;2.03;;;20.20;65.90;;;;;;5137064;27;20185;-67
2022/05/07 09:10:13;;;;;;;3.63;1.85;;;20.20;66.20;;;;;;5137091;27;20157;-67
2022/05/07 09:12:38;;;;;;;2.97;1.60;;;20.20;66.20;;;;;;5135582;27;20264;-67
2022/05/07 09:15:06;;;;;;;5.07;1.67;;;20.50;61.00;;;;;;5135206;27;20242;-68
2022/05/07 09:17:32;;;;;;;1.50;1.40;;;20.70;60.90;;;;;;5136913;27;20153;-67
2022/05/07 09:20:08;;;;;;;1.65;1.55;;;20.40;58.40;;;;;;5136316;27;20198;-67
2022/05/07 09:22:34;;;;;;;3.17;1.63;;;20.00;57.60;;;;;;5135348;27;20183;-68
2022/05/07 09:25:00;;;;;;;2.30;1.48;;;20.00;58.70;;;;;;5136432;27;20165;-69
2022/05/07 09:27:25;;;;;;;7.55;6.47;;;20.20;59.20;;;;;;5136908;27;20300;-72
2022/05/07 09:30:02;;;;;;;2.25;1.58;;;20.80;64.90;;;;;;5136506;27;20545;-70
2022/05/07 09:32:36;;;;;;;2.08;1.85;;;20.60;59.30;;;;;;5135158;27;20271;-71
2022/05/07 09:38:02;;;;;;;9.48;7.78;;;20.20;62.80;;;;;;5136309;27;20215;-72
2022/05/07 09:40:29;;;;;;;8.05;5.95;;;20.10;64.30;;;;;;5136243;27;20579;-72
2022/05/07 09:42:57;;;;;;;6.38;3.05;;;20.20;62.70;;;;;;5137837;27;20558;-72
2022/05/07 09:45:25;;;;;;;3.40;2.58;;;20.20;60.90;;;;;;5136064;27;20183;-72
2022/05/07 09:47:51;;;;;;;2.30;1.70;;;20.60;58.70;;;;;;5137679;27;20170;-73
2022/05/07 09:50:23;;;;;;;11.55;1.85;;;20.70;56.90;;;;;;5136893;27;20582;-72
2022/05/07 09:58:19;;;;;;;4.68;1.92;;;22.40;54.60;;;;;;5137456;27;20203;-73
2022/05/07 10:01:09;;;;;;;3.03;2.10;;;22.60;53.70;;;;;;5137611;27;20231;-72
2022/05/07 10:03:39;;;;;;;4.55;3.13;;;22.70;52.60;;;;;;5124294;27;20218;-71
2022/05/07 10:06:10;;;;;;;5.75;3.85;;;22.90;51.60;;;;;;5098151;28;20653;-66
2022/05/07 10:08:53;;;;;;;2.97;2.45;;;23.10;49.70;;;;;;5116495;28;20606;-68
2022/05/07 10:11:18;;;;;;;4.05;2.10;;;23.10;49.30;;;;;;5115834;28;20249;-67
2022/05/07 10:13:56;;;;;;;2.05;1.65;;;23.10;49.40;;;;;;5115387;28;20565;-67
2022/05/07 10:16:22;;;;;;;1.85;1.40;;;23.10;48.90;;;;;;5114975;28;20195;-69
2022/05/07 10:18:48;;;;;;;1.98;1.52;;;23.00;48.50;;;;;;5115095;28;20162;-68
2022/05/07 10:21:16;;;;;;;4.43;2.83;;;23.20;49.10;;;;;;5114821;28;20169;-68
2022/05/07 10:23:55;;;;;;;8.73;5.30;;;22.80;49.40;;;;;;5114924;28;20484;-67
2022/05/07 10:26:23;;;;;;;2.90;1.83;;;23.00;49.60;;;;;;5114123;28;20198;-67
2022/05/07 10:28:49;;;;;;;3.50;1.90;;;22.40;49.60;;;;;;5114692;28;20193;-67
2022/05/07 10:31:20;;;;;;;3.00;1.70;;;22.80;50.00;;;;;;5114386;28;20159;-68
2022/05/07 10:33:46;;;;;;;3.20;2.40;;;23.10;49.60;;;;;;5097513;28;20181;-67
2022/05/07 10:36:12;;;;;;;2.40;2.00;;;23.60;49.50;;;;;;5118612;28;20551;-67
2022/05/07 10:38:39;;;;;;;2.95;2.22;;;22.70;51.80;;;;;;5116872;28;20158;-68
2022/05/07 10:41:07;;;;;;;2.95;2.00;;;22.60;53.20;;;;;;5116170;28;20159;-68
2022/05/07 10:43:42;;;;;;;3.50;1.98;;;22.40;53.80;;;;;;5117996;28;20162;-67
2022/05/07 10:46:14;;;;;;;4.13;2.30;;;21.80;55.00;;;;;;5118340;28;20297;-66
2022/05/07 10:48:57;;;;;;;4.60;2.22;;;21.60;56.00;;;;;;5119705;28;20166;-68
2022/05/07 10:51:27;;;;;;;4.43;1.90;;;21.60;57.20;;;;;;5117351;28;20165;-66
2022/05/07 10:53:56;;;;;;;4.22;1.98;;;21.60;56.30;;;;;;5097561;28;20169;-66
2022/05/07 10:56:23;;;;;;;4.15;2.00;;;21.50;56.20;;;;;;5115880;28;20166;-69
2022/05/07 10:58:52;;;;;;;2.75;2.50;;;21.50;57.00;;;;;;5121747;28;20158;-66
2022/05/07 11:01:19;;;;;;;5.22;2.03;;;21.50;57.30;;;;;;5123169;28;20174;-66
2022/05/07 11:03:45;;;;;;;3.15;2.08;;;22.20;56.00;;;;;;5123695;28;20669;-66
2022/05/07 11:06:11;;;;;;;5.45;4.15;;;22.60;55.50;;;;;;5123286;28;20201;-67
2022/05/07 11:08:52;;;;;;;4.00;2.00;;;22.60;53.60;;;;;;5101128;28;20188;-67
2022/05/07 11:11:18;;;;;;;3.33;2.08;;;23.00;52.80;;;;;;5100976;28;20599;-68
2022/05/07 11:13:49;;;;;;;2.78;2.10;;;23.00;53.40;;;;;;5119400;28;20173;-68
2022/05/07 11:16:16;;;;;;;3.72;2.10;;;23.10;52.30;;;;;;5118974;28;20170;-67
2022/05/07 11:18:45;;;;;;;3.28;2.22;;;23.20;52.30;;;;;;5123667;28;20193;-67
2022/05/07 11:21:12;;;;;;;2.90;2.63;;;23.20;51.20;;;;;;5122946;28;20178;-67
2022/05/07 11:23:39;;;;;;;2.83;1.90;;;23.50;51.20;;;;;;5121473;28;20162;-68
2022/05/07 11:26:17;;;;;;;6.78;2.22;;;23.80;50.40;;;;;;5123425;28;20190;-67
2022/05/07 11:28:44;;;;;;;1.90;1.70;;;23.20;49.20;;;;;;5122490;28;20163;-68
2022/05/07 11:31:25;;;;;;;3.20;1.98;;;23.00;49.30;;;;;;5122966;28;20159;-69
2022/05/07 11:34:13;;;;;;;2.13;1.80;;;23.40;50.10;;;;;;5118147;28;20179;-68
2022/05/07 11:36:39;;;;;;;3.22;1.77;;;23.60;49.30;;;;;;5101074;28;20573;-69
2022/05/07 11:39:07;;;;;;;3.95;1.80;;;23.60;48.80;;;;;;5118395;28;20186;-67
2022/05/07 11:41:34;;;;;;;3.75;1.98;;;23.60;49.00;;;;;;5118256;28;20169;-68
2022/05/07 11:46:55;;;;;;;4.13;1.80;;;23.80;48.60;;;;;;5118308;28;20239;-67
2022/05/07 11:49:33;;;;;;;2.10;1.55;;;23.50;49.80;;;;;;5118917;28;20165;-68
2022/05/07 11:52:12;;;;;;;2.50;1.92;;;23.00;49.10;;;;;;5121566;28;20228;-67
2022/05/07 11:54:50;;;;;;;1.92;1.50;;;22.70;49.90;;;;;;5122406;28;20174;-68
2022/05/07 11:57:29;;;;;;;3.33;2.00;;;22.40;50.20;;;;;;5104906;28;20185;-69
2022/05/07 11:59:56;;;;;;;2.47;1.60;;;22.50;50.50;;;;;;5122344;28;20158;-67
2022/05/07 12:02:22;;;;;;;4.50;1.80;;;22.30;50.60;;;;;;5105327;27;20178;-68
2022/05/07 12:04:57;;;;;;;1.95;1.50;;;22.20;50.30;;;;;;5139479;27;20603;-67
2022/05/07 12:07:23;;;;;;;2.10;1.67;;;22.00;50.70;;;;;;5138115;27;20189;-67
2022/05/07 12:09:48;;;;;;;3.53;1.90;;;21.90;50.60;;;;;;5137531;27;20488;-68
2022/05/07 12:12:14;;;;;;;1.95;1.70;;;22.00;51.80;;;;;;5138500;27;20201;-67
2022/05/07 12:14:40;;;;;;;2.78;1.70;;;21.90;50.20;;;;;;5138329;27;20174;-68
2022/05/07 12:19:50;;;;;;;4.55;1.77;;;22.20;50.80;;;;;;5137676;27;20152;-67
2022/05/07 12:30:28;;;;;;;2.50;2.10;;;22.30;52.00;;;;;;5137501;27;20634;-67
2022/05/07 12:32:55;;;;;;;3.00;1.90;;;22.30;50.70;;;;;;5137706;27;20157;-67
2022/05/07 12:35:20;;;;;;;4.82;2.00;;;22.40;50.20;;;;;;5136888;27;20203;-67
2022/05/07 12:37:46;;;;;;;4.78;2.00;;;22.80;50.00;;;;;;5137766;27;20585;-68
2022/05/07 12:40:12;;;;;;;3.20;2.10;;;23.50;50.10;;;;;;5137821;27;20200;-68
2022/05/07 12:42:39;;;;;;;3.63;1.75;;;23.20;48.90;;;;;;5136088;27;20518;-68
2022/05/07 12:45:06;;;;;;;3.08;1.80;;;22.80;49.10;;;;;;5137641;27;20169;-66
2022/05/07 12:47:32;;;;;;;2.13;1.92;;;22.50;49.00;;;;;;5137388;27;20519;-67
2022/05/07 12:49:57;;;;;;;5.25;2.38;;;22.30;50.20;;;;;;5138160;27;20177;-67
2022/05/07 12:52:23;;;;;;;2.40;1.48;;;22.40;51.20;;;;;;5138097;27;20161;-68
2022/05/07 12:54:49;;;;;;;2.92;2.28;;;22.60;50.20;;;;;;5137337;27;20188;-68
2022/05/07 12:57:15;;;;;;;3.55;1.50;;;22.50;49.70;;;;;;5137626;27;20190;-66
2022/05/07 12:59:41;;;;;;;5.38;1.60;;;22.30;49.60;;;;;;5137370;27;20268;-68
2022/05/07 13:02:08;;;;;;;1.98;1.75;;;22.20;50.20;;;;;;5137926;27;20261;-68
2022/05/07 13:04:34;;;;;;;2.47;1.80;;;22.40;50.50;;;;;;5121716;28;20158;-67
2022/05/07 13:07:00;;;;;;;2.80;1.67;;;22.50;50.10;;;;;;5123239;28;20220;-67
2022/05/07 13:09:26;;;;;;;2.80;1.75;;;22.30;50.10;;;;;;5124611;28;20609;-68
2022/05/07 13:11:53;;;;;;;2.72;2.20;;;22.50;50.30;;;;;;5119136;28;20151;-68
2022/05/07 13:14:18;;;;;;;2.40;1.42;;;22.30;50.30;;;;;;5117905;28;20227;-67
2022/05/07 13:16:44;;;;;;;2.00;1.70;;;22.10;49.50;;;;;;5116401;28;20170;-68
2022/05/07 13:19:10;;;;;;;2.38;1.88;;;22.30;50.30;;;;;;5098124;28;20189;-68
2022/05/07 13:21:35;;;;;;;3.15;1.90;;;22.30;50.00;;;;;;5115645;28;20590;-69
2022/05/07 13:24:01;;;;;;;2.92;2.03;;;22.10;49.40;;;;;;5116057;28;20231;-67